Time;durP1;ratioP1;P1;durP2;ratioP2;P2;SDS_P1;SDS_P2;PMS_P1;PMS_P2;Temp;Humidity;BMP_temperature;BMP_pressure;BME280_temperature;BME280_humidity;BME280_pressure;Samples;Min_cycle;Max_cycle;Signal;HPM_P1;HPM_P2
2024/01/01 00:04:23;;;;;;;76.95;45.38;;;;;;;3.64;79.52;97640.53;10363484;28;20037;-51
2024/01/01 00:09:22;;;;;;;85.55;51.83;;;;;;;3.71;79.42;97651.81;10364804;28;20067;-52
2024/01/01 00:14:21;;;;;;;109.57;61.97;;;;;;;3.69;79.78;97652.59;10365590;28;20048;-50
2024/01/01 00:19:20;;;;;;;108.82;63.53;;;;;;;3.69;79.63;97648.34;10364827;28;20155;-51
2024/01/01 00:24:18;;;;;;;101.95;60.67;;;;;;;3.30;79.86;97608.03;10364748;28;20663;-50
2024/01/01 00:29:17;;;;;;;103.47;63.47;;;;;;;3.46;79.47;97623.81;10364127;28;20124;-52
2024/01/01 00:34:16;;;;;;;95.88;56.13;;;;;;;3.67;79.45;97662.81;10362398;28;20124;-50
2024/01/01 00:39:16;;;;;;;89.03;54.53;;;;;;;3.60;79.78;97658.38;10363281;28;20072;-50
2024/01/01 00:44:15;;;;;;;93.35;55.97;;;;;;;3.61;79.60;97645.59;10362589;28;20716;-49
2024/01/01 00:49:14;;;;;;;78.22;44.92;;;;;;;3.23;79.89;97606.13;10362337;28;20484;-49
2024/01/01 00:54:12;;;;;;;83.75;49.97;;;;;;;3.48;79.71;97655.50;10363921;28;20100;-51
2024/01/01 00:59:12;;;;;;;70.05;40.47;;;;;;;3.34;79.52;97644.91;10364194;28;20041;-49
2024/01/01 01:04:10;;;;;;;69.00;39.90;;;;;;;3.32;79.56;97637.16;10363978;28;20159;-50
2024/01/01 01:09:09;;;;;;;70.70;38.78;;;;;;;3.24;79.30;97625.84;10363509;28;20111;-51
2024/01/01 01:14:08;;;;;;;61.38;37.88;;;;;;;3.39;79.23;97636.47;10363300;28;20119;-50
2024/01/01 01:19:07;;;;;;;66.90;38.55;;;;;;;3.39;78.79;97623.66;10363293;28;20037;-49
2024/01/01 01:24:06;;;;;;;61.95;39.47;;;;;;;3.34;79.11;97635.50;10363270;28;20049;-50
2024/01/01 01:29:06;;;;;;;74.15;42.67;;;;;;;3.21;79.52;97612.91;10363950;28;20461;-51
2024/01/01 01:34:05;;;;;;;64.95;38.53;;;;;;;3.16;80.83;97622.19;10362705;28;20040;-50
2024/01/01 01:39:04;;;;;;;79.53;46.08;;;;;;;3.15;81.59;97608.50;10362940;28;20562;-49
2024/01/01 01:44:04;;;;;;;77.25;47.15;;;;;;;3.41;80.93;97627.13;10363193;28;20389;-48
2024/01/01 01:49:03;;;;;;;82.22;51.50;;;;;;;2.93;81.37;97519.97;10361257;28;20076;-48
2024/01/01 01:54:02;;;;;;;77.85;46.35;;;;;;;3.31;82.07;97614.91;10362678;28;20063;-48
2024/01/01 01:59:03;;;;;;;92.70;53.92;;;;;;;3.34;81.95;97609.84;10362724;28;20083;-48
2024/01/01 02:04:02;;;;;;;93.25;55.58;;;;;;;3.19;81.68;97579.56;10362031;28;20056;-49
2024/01/01 02:09:01;;;;;;;86.40;53.92;;;;;;;3.30;81.47;97586.66;10361988;28;20112;-48
2024/01/01 02:14:11;;;;;;;86.28;51.03;;;;;;;3.39;81.65;97592.88;10362884;28;20036;-48
2024/01/01 02:19:16;;;;;;;;;;;;;;;3.67;80.91;97608.94;10362283;28;20136;-50
2024/01/01 02:24:15;;;;;;;87.53;52.30;;;;;;;3.59;80.64;97601.06;10361849;28;19968;-48
2024/01/01 02:29:15;;;;;;;89.28;54.38;;;;;;;3.59;81.26;97620.72;10368440;28;20065;-49
2024/01/01 02:34:17;;;;;;;90.47;53.85;;;;;;;3.32;81.73;97603.81;10368051;28;20060;-51
2024/01/01 02:39:16;;;;;;;80.45;50.60;;;;;;;3.42;81.15;97592.06;10366461;28;20065;-48
2024/01/01 02:44:17;;;;;;;79.07;46.97;;;;;;;2.51;80.46;97446.31;10369484;28;20136;-50
2024/01/01 02:49:16;;;;;;;70.13;43.92;;;;;;;3.44;80.39;97598.13;10368325;28;20569;-50
2024/01/01 02:54:15;;;;;;;62.63;38.05;;;;;;;3.73;80.60;97628.72;10368637;28;20494;-48
2024/01/01 02:59:14;;;;;;;50.00;30.33;;;;;;;3.19;81.33;97530.84;10368017;28;20063;-48
2024/01/01 03:04:13;;;;;;;50.78;31.90;;;;;;;3.79;81.45;97592.94;10368122;28;20036;-50
2024/01/01 03:09:12;;;;;;;49.47;29.02;;;;;;;3.74;81.71;97551.78;10368088;28;20545;-48
2024/01/01 03:14:11;;;;;;;47.10;30.92;;;;;;;4.25;81.38;97569.16;10368245;28;20545;-48
2024/01/01 03:19:10;;;;;;;49.80;29.98;;;;;;;4.27;80.09;97544.38;10366927;28;20065;-50
2024/01/01 03:24:10;;;;;;;68.03;39.08;;;;;;;3.53;79.87;97405.06;10367828;28;20061;-50
2024/01/01 03:29:09;;;;;;;57.67;31.52;;;;;;;4.28;79.66;97525.53;10366512;28;20073;-51
2024/01/01 03:34:08;;;;;;;68.40;37.42;;;;;;;4.57;79.01;97570.63;10367688;28;20064;-49
2024/01/01 03:39:06;;;;;;;38.47;22.13;;;;;;;4.40;78.59;97571.16;10366614;28;20040;-48
2024/01/01 03:44:06;;;;;;;32.20;21.33;;;;;;;4.08;78.34;97527.72;10366889;28;20059;-49
2024/01/01 03:49:05;;;;;;;40.65;26.23;;;;;;;3.93;79.10;97526.53;10366928;28;20139;-49
2024/01/01 03:54:04;;;;;;;33.15;21.73;;;;;;;3.97;79.39;97516.34;10365394;28;20155;-48
2024/01/01 03:59:03;;;;;;;33.15;21.65;;;;;;;4.00;79.00;97505.28;10363683;28;20057;-51
2024/01/01 04:04:03;;;;;;;28.63;18.98;;;;;;;3.78;82.12;97479.16;10364122;28;20120;-51
2024/01/01 04:09:02;;;;;;;42.70;25.20;;;;;;;4.53;82.82;97549.16;10363837;28;20152;-49
2024/01/01 04:14:02;;;;;;;21.35;12.73;;;;;;;5.10;82.88;97535.66;10363528;28;20025;-49
2024/01/01 04:19:01;;;;;;;32.88;21.63;;;;;;;5.78;80.43;97536.72;10365000;28;20083;-49
2024/01/01 04:24:00;;;;;;;31.52;17.92;;;;;;;6.01;77.33;97524.16;10364661;28;20110;-50
2024/01/01 04:28:59;;;;;;;28.23;18.83;;;;;;;6.14;75.97;97514.88;10362209;28;20148;-50
2024/01/01 04:33:58;;;;;;;30.70;18.30;;;;;;;6.31;75.68;97531.41;10364064;28;20524;-48
2024/01/01 04:38:59;;;;;;;27.08;17.45;;;;;;;5.98;74.89;97483.78;10364009;28;20076;-48
2024/01/01 04:43:58;;;;;;;31.92;18.20;;;;;;;6.21;74.49;97539.88;10364213;28;20063;-49
2024/01/01 04:48:57;;;;;;;31.63;18.45;;;;;;;5.87;74.52;97490.50;10364032;28;20029;-49
2024/01/01 04:53:56;;;;;;;29.65;17.40;;;;;;;5.66;74.76;97479.91;10363767;28;20037;-48
2024/01/01 04:58:55;;;;;;;25.58;17.08;;;;;;;5.92;74.97;97537.78;10363460;28;20100;-48
2024/01/01 05:03:54;;;;;;;34.50;21.65;;;;;;;5.86;74.76;97529.09;10364125;28;20116;-49
2024/01/01 05:08:52;;;;;;;32.60;21.48;;;;;;;5.57;74.97;97496.06;10362987;28;20037;-49
2024/01/01 05:13:51;;;;;;;32.65;21.83;;;;;;;5.61;75.28;97509.88;10363031;28;20143;-48
2024/01/01 05:18:50;;;;;;;27.48;18.40;;;;;;;5.41;75.08;97476.97;10361738;28;20100;-49
2024/01/01 05:23:49;;;;;;;23.30;16.17;;;;;;;5.50;76.14;97502.84;10361497;28;20092;-49
2024/01/01 05:28:48;;;;;;;21.90;15.35;;;;;;;5.59;75.85;97521.84;10361896;28;20068;-50
2024/01/01 05:33:47;;;;;;;26.77;17.50;;;;;;;5.59;75.77;97521.84;10363401;28;20037;-49
2024/01/01 05:38:46;;;;;;;33.65;21.52;;;;;;;5.24;76.56;97527.31;10362816;28;20140;-48
2024/01/01 05:43:45;;;;;;;49.38;29.08;;;;;;;5.01;76.13;97496.06;10362654;28;20518;-48
2024/01/01 05:48:44;;;;;;;58.42;35.10;;;;;;;5.17;75.60;97554.63;10362439;28;20120;-49
2024/01/01 05:53:43;;;;;;;56.78;34.58;;;;;;;5.06;75.46;97531.31;10363032;28;20570;-50
2024/01/01 05:58:42;;;;;;;54.30;34.75;;;;;;;4.82;75.41;97505.13;10362217;28;20064;-49
2024/01/01 06:03:42;;;;;;;32.72;20.38;;;;;;;4.90;76.22;97539.56;10370775;28;20037;-50
2024/01/01 06:08:40;;;;;;;;;;;;;;;4.95;76.42;97540.56;10370945;28;20112;-51
2024/01/01 06:13:39;;;;;;;40.97;26.35;;;;;;;4.85;76.93;97512.88;10370143;28;19952;-49
2024/01/01 06:18:38;;;;;;;42.42;28.00;;;;;;;4.81;76.60;97514.56;10368858;28;20113;-49
2024/01/01 06:23:39;;;;;;;95.70;60.15;;;;;;;4.56;77.54;97546.66;10368348;28;20135;-49
2024/01/01 06:28:38;;;;;;;98.22;58.75;;;;;;;4.53;78.11;97551.72;10369520;28;20124;-49
2024/01/01 06:33:37;;;;;;;77.60;52.30;;;;;;;4.41;78.02;97544.66;10370069;28;20077;-49
2024/01/01 06:38:36;;;;;;;67.20;43.38;;;;;;;4.08;78.32;97499.47;10369153;28;20088;-48
2024/01/01 06:43:35;;;;;;;55.88;36.70;;;;;;;4.39;77.85;97530.03;10369363;28;20075;-50
2024/01/01 06:48:34;;;;;;;45.88;30.60;;;;;;;4.55;78.01;97532.06;10368751;28;20119;-50
2024/01/01 06:53:33;;;;;;;44.25;29.15;;;;;;;4.64;78.15;97526.22;10368726;28;20140;-48
2024/01/01 06:58:32;;;;;;;37.00;25.85;;;;;;;4.67;78.00;97500.59;10368353;28;20482;-48
2024/01/01 07:03:31;;;;;;;;;;;;;;;4.99;77.70;97538.88;10368683;28;20060;-48
2024/01/01 07:08:30;;;;;;;43.53;29.38;;;;;;;4.96;77.71;97524.28;10368070;28;19960;-48
2024/01/01 07:13:29;;;;;;;56.15;37.70;;;;;;;4.68;77.97;97502.31;10367248;28;20025;-50
2024/01/01 07:18:28;;;;;;;51.58;33.63;;;;;;;4.49;77.57;97472.84;10367298;28;20074;-49
2024/01/01 07:23:27;;;;;;;60.13;40.03;;;;;;;4.90;77.37;97525.00;10367784;28;20152;-48
2024/01/01 07:28:26;;;;;;;55.13;35.50;;;;;;;5.03;77.10;97535.53;10367438;28;20041;-48
2024/01/01 07:33:25;;;;;;;42.42;29.15;;;;;;;5.17;76.45;97497.19;10366415;28;20075;-48
2024/01/01 07:38:24;;;;;;;29.20;19.42;;;;;;;5.39;76.48;97494.13;10366878;28;20116;-49
2024/01/01 07:43:23;;;;;;;29.02;19.30;;;;;;;5.87;77.11;97512.81;10365610;28;20064;-49
2024/01/01 07:48:21;;;;;;;26.23;18.52;;;;;;;6.09;75.03;97475.31;10366251;28;20040;-50
2024/01/01 07:53:20;;;;;;;27.65;18.73;;;;;;;6.62;75.13;97505.97;10366704;28;20064;-50
2024/01/01 07:58:19;;;;;;;22.30;15.98;;;;;;;6.94;74.58;97492.56;10364355;28;20104;-51
2024/01/01 08:03:21;;;;;;;22.33;17.08;;;;;;;7.33;73.01;97465.31;10365738;28;20473;-49
2024/01/01 08:08:20;;;;;;;35.55;26.67;;;;;;;7.80;71.65;97485.44;10364756;28;20076;-50
2024/01/01 08:13:19;;;;;;;30.25;21.88;;;;;;;8.46;69.87;97507.31;10362243;28;20040;-49
2024/01/01 08:18:18;;;;;;;27.63;20.10;;;;;;;8.82;67.77;97525.50;10362771;28;20112;-50
2024/01/01 08:23:17;;;;;;;25.15;19.23;;;;;;;8.71;65.62;97460.78;10363593;28;20048;-50
2024/01/01 08:28:16;;;;;;;31.25;21.80;;;;;;;9.04;65.37;97466.88;10364128;28;20108;-50
2024/01/01 08:33:16;;;;;;;26.52;19.52;;;;;;;9.58;64.75;97491.03;10363202;28;20037;-52
2024/01/01 08:38:15;;;;;;;20.10;15.52;;;;;;;10.09;63.06;97491.78;10364005;28;20082;-50
2024/01/01 08:43:14;;;;;;;20.55;16.38;;;;;;;9.83;62.11;97415.84;10363748;28;20375;-52
2024/01/01 08:48:13;;;;;;;20.77;16.70;;;;;;;10.57;61.51;97491.59;10362992;28;20060;-52
2024/01/01 08:53:12;;;;;;;25.27;17.83;;;;;;;10.61;59.35;97481.19;10363602;28;20039;-51
2024/01/01 08:58:11;;;;;;;23.08;18.50;;;;;;;10.92;59.66;97462.00;10362113;28;20064;-52
2024/01/01 09:03:10;;;;;;;25.83;18.85;;;;;;;11.13;58.53;97442.81;10362689;28;20032;-50
2024/01/01 09:08:09;;;;;;;24.90;18.98;;;;;;;11.41;58.51;97474.59;10333363;28;20570;-49
2024/01/01 09:13:08;;;;;;;29.27;22.33;;;;;;;11.60;57.58;97467.50;10362962;28;20502;-49
2024/01/01 09:18:10;;;;;;;25.70;20.40;;;;;;;11.50;57.11;97442.47;10362665;28;20056;-49
2024/01/01 09:23:09;;;;;;;28.80;21.90;;;;;;;11.68;56.62;97432.72;10363108;28;20136;-52
2024/01/01 09:28:08;;;;;;;29.95;23.60;;;;;;;11.85;55.97;97455.97;10361979;28;20105;-51
2024/01/01 09:33:07;;;;;;;;;;;;;;;11.96;56.04;97452.38;10362386;28;20068;-51
2024/01/01 09:38:06;;;;;;;30.48;24.30;;;;;;;11.87;55.65;97417.78;10361649;28;19963;-49
2024/01/01 09:43:04;;;;;;;26.00;21.48;;;;;;;12.08;55.88;97421.03;10357582;28;20213;-51
2024/01/01 09:48:04;;;;;;;31.70;22.63;;;;;;;12.22;55.64;97432.09;10361889;28;20033;-52
2024/01/01 09:53:03;;;;;;;25.40;19.17;;;;;;;12.01;55.08;97375.16;10361156;28;20068;-50
2024/01/01 09:58:02;;;;;;;23.30;18.05;;;;;;;12.49;54.38;97419.66;10360074;28;20719;-51
2024/01/01 10:03:10;;;;;;;21.95;18.13;;;;;;;12.43;54.75;97367.69;10359681;28;20490;-51
2024/01/01 10:08:11;;;;;;;26.75;20.40;;;;;;;12.95;53.97;97400.72;10361001;28;20071;-49
2024/01/01 10:13:12;;;;;;;25.02;19.50;;;;;;;12.72;52.79;97316.06;10361848;28;20071;-49
2024/01/01 10:18:16;;;;;;;22.42;16.70;;;;;;;13.34;52.65;97380.09;10361147;28;20056;-49
2024/01/01 10:23:21;;;;;;;21.77;18.02;;;;;;;13.33;52.07;97367.97;10360405;28;20132;-50
2024/01/01 10:28:24;;;;;;;29.20;23.20;;;;;;;13.02;51.21;97349.41;10361118;28;20547;-50
2024/01/01 10:33:25;;;;;;;25.23;17.80;;;;;;;13.41;51.05;97368.66;10358135;28;20494;-50
2024/01/01 10:38:25;;;;;;;21.65;17.65;;;;;;;13.37;51.02;97340.94;10359895;28;20060;-51
2024/01/01 10:43:28;;;;;;;19.65;15.77;;;;;;;13.70;50.81;97360.34;10360985;28;20095;-49
2024/01/01 10:48:27;;;;;;;18.67;14.07;;;;;;;13.81;49.81;97346.22;10362429;28;20111;-55
2024/01/01 10:53:59;;;;;;;21.10;17.25;;;;;;;13.76;48.50;97312.41;10365587;28;20117;-50
2024/01/01 10:59:19;;;;;;;24.63;19.25;;;;;;;13.95;48.73;97334.59;10364423;28;20475;-49
2024/01/01 11:04:20;;;;;;;21.15;18.95;;;;;;;14.02;48.06;97345.75;10367567;28;20556;-50
2024/01/01 11:09:19;;;;;;;20.13;15.82;;;;;;;14.07;47.82;97340.44;10365316;28;20079;-49
2024/01/01 11:14:24;;;;;;;21.90;18.23;;;;;;;14.25;47.50;97337.44;10367885;28;20094;-50
2024/01/01 11:19:35;;;;;;;16.73;13.93;;;;;;;14.32;45.97;97325.13;10366906;28;20463;-51
2024/01/01 11:24:45;;;;;;;12.25;10.32;;;;;;;14.00;45.50;97237.97;10366968;28;20518;-51
2024/01/01 11:29:44;;;;;;;16.65;14.85;;;;;;;14.67;45.79;97312.97;10366297;28;20115;-51
2024/01/01 11:34:43;;;;;;;15.18;12.50;;;;;;;15.01;45.68;97320.84;10365977;28;20029;-50
2024/01/01 11:39:41;;;;;;;;;;;;;;;15.21;45.10;97315.97;10367072;28;20060;-50
2024/01/01 11:44:40;;;;;;;11.55;9.95;;;;;;;15.24;43.27;97300.19;10366460;28;19912;-49
2024/01/01 11:49:39;;;;;;;10.05;8.77;;;;;;;15.17;43.79;97261.19;10365871;28;20856;-51
2024/01/01 11:54:38;;;;;;;;;;;;;;;15.41;42.70;97281.44;10364608;28;20115;-49
2024/01/01 11:59:37;;;;;;;8.68;7.75;;;;;;;15.39;42.32;97267.56;10364688;28;19916;-50
2024/01/01 12:04:39;;;;;;;10.43;9.43;;;;;;;15.47;42.40;97243.78;10365451;28;20060;-51
2024/01/01 12:09:38;;;;;;;9.10;8.20;;;;;;;15.49;41.49;97262.06;10364555;28;20148;-51
2024/01/01 12:14:37;;;;;;;;;;;;;;;15.83;41.85;97280.28;10365747;28;20029;-52
2024/01/01 12:19:36;;;;;;;13.10;8.30;;;;;;;15.55;41.08;97247.06;10365012;28;19960;-50
2024/01/01 12:24:35;;;;;;;;;;;;;;;15.98;41.31;97290.28;10364705;28;20060;-51
2024/01/01 12:29:34;;;;;;;9.23;8.32;;;;;;;15.78;40.59;97251.59;10364216;28;19920;-50
2024/01/01 12:34:33;;;;;;;;;;;;;;;16.15;40.81;97283.69;10365117;28;20029;-51
2024/01/01 12:39:32;;;;;;;9.30;7.85;;;;;;;15.98;40.69;97282.44;10364348;28;19916;-49
2024/01/01 12:44:30;;;;;;;;;;;;;;;16.15;41.12;97281.91;10364750;28;20131;-50
2024/01/01 12:49:34;;;;;;;9.45;7.60;;;;;;;16.05;40.83;97276.13;10363163;28;19916;-50
2024/01/01 12:54:33;;;;;;;9.90;7.90;;;;;;;16.05;40.99;97265.66;10363636;28;20053;-49
2024/01/01 12:59:33;;;;;;;;;;;;;;;16.15;40.44;97273.22;10360353;28;20021;-51
2024/01/01 13:04:32;;;;;;;9.13;8.20;;;;;;;15.71;40.56;97195.13;10363510;28;19955;-49
2024/01/01 13:09:31;;;;;;;8.77;7.93;;;;;;;16.15;40.83;97263.59;10362522;28;20689;-50
2024/01/01 13:14:31;;;;;;;;;;;;;;;16.16;39.93;97273.19;10362908;28;20567;-49
2024/01/01 13:19:32;;;;;;;9.35;8.40;;;;;;;16.36;40.31;97259.44;10362947;28;20366;-51
2024/01/01 13:24:34;;;;;;;18.33;16.38;;;;;;;16.02;39.57;97197.69;10363100;28;20103;-51
2024/01/01 13:29:33;;;;;;;14.50;12.02;;;;;;;16.18;39.46;97213.75;10361847;28;20067;-50
2024/01/01 13:34:32;;;;;;;13.07;11.68;;;;;;;15.87;39.61;97177.25;10363169;28;20878;-50
2024/01/01 13:39:31;;;;;;;;;;;;;;;16.03;39.71;97243.91;10362251;28;21043;-51
2024/01/01 13:44:31;;;;;;;9.25;7.60;;;;;;;15.91;39.78;97212.88;10359764;28;19960;-50
2024/01/01 13:49:33;;;;;;;8.13;7.38;;;;;;;15.36;40.61;97240.63;10361915;28;20116;-50
2024/01/01 13:54:32;;;;;;;9.63;8.43;;;;;;;15.16;41.07;97228.13;10360212;28;20060;-51
2024/01/01 13:59:31;;;;;;;;;;;;;;;15.24;41.47;97231.38;10362446;28;20048;-52
2024/01/01 14:04:33;;;;;;;17.48;14.30;;;;;;;15.11;41.31;97225.66;10362393;28;19948;-50
2024/01/01 14:09:32;;;;;;;14.25;12.65;;;;;;;15.07;41.68;97224.00;10361995;28;20057;-50
2024/01/01 14:14:30;;;;;;;;;;;;;;;14.77;41.99;97236.97;10362296;28;20033;-53
2024/01/01 14:19:29;;;;;;;10.02;9.02;;;;;;;14.87;41.75;97248.03;10361683;28;20332;-53
2024/01/01 14:24:28;;;;;;;;;;;;;;;14.93;42.12;97247.03;10368444;28;20129;-52
2024/01/01 14:29:29;;;;;;;10.93;9.82;;;;;;;14.83;42.15;97226.38;10369260;28;20011;-50
2024/01/01 14:34:28;;;;;;;10.98;9.70;;;;;;;14.35;42.37;97203.19;10369534;28;20060;-53
2024/01/01 14:39:27;;;;;;;11.05;9.85;;;;;;;13.82;42.86;97087.13;10367572;28;20538;-50
2024/01/01 14:44:26;;;;;;;;;;;;;;;14.64;42.96;97222.53;10369215;28;20096;-52
2024/01/01 14:49:26;;;;;;;12.77;9.68;;;;;;;14.45;43.28;97239.53;10366890;28;19956;-51
2024/01/01 14:54:26;;;;;;;11.63;10.02;;;;;;;14.04;43.36;97176.16;10364629;28;20190;-51
2024/01/01 14:59:25;;;;;;;10.52;9.10;;;;;;;14.16;43.71;97239.34;10366093;28;20136;-51
2024/01/01 15:04:24;;;;;;;;;;;;;;;14.12;44.12;97242.03;10369388;28;20033;-50
2024/01/01 15:09:23;;;;;;;11.38;9.85;;;;;;;13.93;44.27;97213.78;10366489;28;19974;-50
2024/01/01 15:14:22;;;;;;;;;;;;;;;13.91;44.43;97257.31;10368207;28;20021;-50
2024/01/01 15:19:21;;;;;;;10.60;9.50;;;;;;;13.83;44.53;97247.94;10367704;28;19928;-50
2024/01/01 15:24:19;;;;;;;14.98;12.88;;;;;;;13.60;44.99;97248.44;10367439;28;20055;-51
2024/01/01 15:29:18;;;;;;;9.65;8.65;;;;;;;13.15;45.14;97228.47;10365316;28;20029;-51
2024/01/01 15:34:17;;;;;;;16.02;13.98;;;;;;;13.20;45.92;97260.50;10365317;28;20025;-50
2024/01/01 15:39:17;;;;;;;15.50;11.45;;;;;;;13.01;45.85;97241.75;10366377;28;20064;-52
2024/01/01 15:44:16;;;;;;;16.25;13.40;;;;;;;12.95;46.47;97262.69;10366949;28;20025;-52
2024/01/01 15:49:15;;;;;;;23.15;15.88;;;;;;;12.90;46.71;97275.78;10366593;28;20556;-50
2024/01/01 15:54:14;;;;;;;23.10;18.88;;;;;;;12.84;47.29;97272.47;10366601;28;20147;-50
2024/01/01 15:59:13;;;;;;;36.35;23.38;;;;;;;11.09;47.50;97020.47;10365706;28;20833;-53
2024/01/01 16:04:12;;;;;;;25.30;19.40;;;;;;;12.15;48.21;97224.97;10365361;28;20403;-51
2024/01/01 16:09:11;;;;;;;22.70;18.73;;;;;;;12.34;48.25;97274.16;10364434;28;20031;-51
2024/01/01 16:14:10;;;;;;;26.13;20.15;;;;;;;11.92;48.81;97229.69;10365608;28;20040;-50
2024/01/01 16:19:09;;;;;;;41.97;32.03;;;;;;;12.03;48.79;97266.78;10364888;28;20753;-50
2024/01/01 16:24:07;;;;;;;46.95;31.30;;;;;;;12.01;49.51;97298.00;10364913;28;20045;-50
2024/01/01 16:29:06;;;;;;;36.42;29.05;;;;;;;11.99;49.65;97322.31;10362815;28;20039;-50
2024/01/01 16:34:05;;;;;;;49.30;33.75;;;;;;;11.78;50.03;97300.94;10364355;28;20024;-49
2024/01/01 16:39:05;;;;;;;43.33;30.55;;;;;;;11.74;50.48;97306.19;10361586;28;20116;-50
2024/01/01 16:44:04;;;;;;;44.35;30.85;;;;;;;11.78;50.55;97303.53;10362778;28;20104;-50
2024/01/01 16:49:02;;;;;;;47.40;34.70;;;;;;;11.89;51.08;97344.97;10363593;28;20029;-49
2024/01/01 16:54:01;;;;;;;61.15;42.95;;;;;;;11.59;51.29;97322.81;10363655;28;20119;-49
2024/01/01 16:59:00;;;;;;;59.08;44.55;;;;;;;11.66;51.26;97334.88;10363161;28;20017;-52
2024/01/01 17:03:59;;;;;;;90.20;63.13;;;;;;;11.75;52.09;97339.94;10363085;28;20124;-50
2024/01/01 17:08:58;;;;;;;97.18;70.35;;;;;;;11.57;51.59;97314.19;10362998;28;20095;-49
2024/01/01 17:13:57;;;;;;;90.60;64.35;;;;;;;11.62;51.83;97331.47;10363351;28;20108;-51
2024/01/01 17:18:56;;;;;;;69.18;50.28;;;;;;;11.25;52.41;97279.91;10360583;28;20121;-49
2024/01/01 17:23:55;;;;;;;63.15;45.58;;;;;;;11.18;53.07;97290.41;10361960;28;20873;-50
2024/01/01 17:28:54;;;;;;;49.38;35.92;;;;;;;11.09;53.07;97285.31;10362610;28;20027;-50
2024/01/01 17:33:54;;;;;;;47.25;34.25;;;;;;;11.13;52.94;97303.44;10361206;28;20032;-51
2024/01/01 17:38:54;;;;;;;55.20;40.38;;;;;;;11.17;53.98;97309.44;10362670;28;20048;-51
2024/01/01 17:43:54;;;;;;;62.42;40.95;;;;;;;10.85;54.25;97292.44;10360212;28;20507;-50
2024/01/01 17:48:53;;;;;;;;;;;;;;;11.08;53.97;97314.72;10361880;28;20104;-49
2024/01/01 17:53:51;;;;;;;92.80;65.03;;;;;;;10.69;53.94;97242.41;10358554;28;19913;-50
2024/01/01 17:58:52;;;;;;;70.43;47.45;;;;;;;11.19;53.72;97323.28;10366795;28;20025;-51
2024/01/01 18:03:52;;;;;;;37.25;28.95;;;;;;;10.77;54.54;97268.28;10368194;28;20053;-51
2024/01/01 18:08:51;;;;;;;53.55;39.13;;;;;;;10.37;55.22;97234.91;10366589;28;20053;-49
2024/01/01 18:13:50;;;;;;;60.28;44.22;;;;;;;10.93;55.32;97337.38;10369053;28;20025;-51
2024/01/01 18:18:50;;;;;;;57.67;41.60;;;;;;;10.87;54.76;97314.09;10368514;28;20070;-50
2024/01/01 18:23:49;;;;;;;46.53;35.70;;;;;;;10.69;55.36;97288.25;10366558;28;20068;-49
2024/01/01 18:28:48;;;;;;;47.15;33.30;;;;;;;10.55;55.64;97293.56;10367170;28;20112;-50
2024/01/01 18:33:47;;;;;;;44.75;32.53;;;;;;;10.80;55.78;97325.38;10381669;28;20037;-50
2024/01/01 18:38:48;;;;;;;38.80;27.25;;;;;;;10.54;55.57;97277.16;10367551;28;21521;-49
2024/01/01 18:43:47;;;;;;;43.78;31.10;;;;;;;10.74;55.16;97308.09;10365527;28;20113;-51
2024/01/01 18:48:46;;;;;;;38.38;28.63;;;;;;;10.83;55.47;97320.13;10367816;28;20024;-50
2024/01/01 18:53:45;;;;;;;42.22;28.63;;;;;;;10.86;54.93;97334.81;10365017;28;20025;-49
2024/01/01 18:58:48;;;;;;;53.97;35.15;;;;;;;10.89;55.74;97340.84;10366803;28;21708;-49
2024/01/01 19:03:47;;;;;;;61.42;44.95;;;;;;;10.76;57.07;97385.94;10360129;28;20558;-49
2024/01/01 19:08:46;;;;;;;53.38;37.25;;;;;;;10.78;56.25;97394.59;10354130;28;20100;-49
2024/01/01 19:13:45;;;;;;;34.35;26.38;;;;;;;10.31;56.47;97346.50;10367465;28;20056;-52
2024/01/01 19:18:45;;;;;;;37.83;26.80;;;;;;;10.63;57.77;97416.31;10364960;28;20021;-51
2024/01/01 19:23:46;;;;;;;28.95;22.73;;;;;;;10.10;58.92;97343.16;10366739;28;20076;-52
2024/01/01 19:28:45;;;;;;;29.40;22.67;;;;;;;9.34;60.32;97283.03;10366827;28;20139;-51
2024/01/01 19:33:44;;;;;;;29.17;23.23;;;;;;;9.89;59.82;97366.59;10367549;28;20059;-52
2024/01/01 19:38:43;;;;;;;31.13;21.35;;;;;;;10.02;61.22;97407.13;10366734;28;20019;-51
2024/01/01 19:43:42;;;;;;;29.33;21.75;;;;;;;10.25;60.68;97432.94;10366894;28;20057;-51
2024/01/01 19:48:41;;;;;;;33.63;22.45;;;;;;;10.45;60.20;97440.66;10366841;28;20036;-50
2024/01/01 19:53:40;;;;;;;32.58;21.48;;;;;;;10.61;59.97;97460.44;10364282;28;20103;-52
2024/01/01 19:58:40;;;;;;;31.63;24.08;;;;;;;10.48;59.60;97413.81;10365020;28;20052;-51
2024/01/01 20:03:39;;;;;;;38.00;24.35;;;;;;;10.51;61.81;97458.75;10365071;28;20151;-51
2024/01/01 20:08:39;;;;;;;33.83;24.10;;;;;;;9.26;62.23;97279.59;10363469;28;20127;-51
2024/01/01 20:13:40;;;;;;;35.35;25.15;;;;;;;10.32;63.86;97473.53;10366685;28;20465;-49
2024/01/01 20:18:39;;;;;;;33.17;21.17;;;;;;;9.84;65.73;97477.16;10365047;28;20052;-51
2024/01/01 20:23:38;;;;;;;27.75;18.90;;;;;;;9.54;67.82;97461.69;10363897;28;20076;-50
2024/01/01 20:28:37;;;;;;;33.22;23.98;;;;;;;9.19;68.15;97428.03;10363486;28;20039;-51
2024/01/01 20:33:36;;;;;;;28.25;20.52;;;;;;;9.28;69.28;97469.50;10365275;28;20025;-51
2024/01/01 20:38:36;;;;;;;27.35;17.92;;;;;;;9.40;69.33;97486.75;10364490;28;20152;-51
2024/01/01 20:43:35;;;;;;;;;;;;;;;9.29;70.22;97504.88;10362864;28;20123;-51
2024/01/01 20:48:37;;;;;;;27.50;18.43;;;;;;;9.21;69.60;97472.03;10364777;28;20008;-51
2024/01/01 20:53:37;;;;;;;23.50;17.33;;;;;;;9.53;68.82;97529.91;10361865;28;20067;-49
2024/01/01 20:58:37;;;;;;;23.27;17.15;;;;;;;9.45;69.05;97529.06;10360483;28;20059;-48
2024/01/01 21:03:36;;;;;;;27.77;18.90;;;;;;;9.13;68.25;97448.75;10364202;28;20124;-48
2024/01/01 21:08:36;;;;;;;36.45;24.80;;;;;;;9.74;67.12;97533.34;10362466;28;20082;-47
2024/01/01 21:13:36;;;;;;;36.53;27.60;;;;;;;9.49;68.03;97498.84;10364378;28;20079;-49
2024/01/01 21:18:35;;;;;;;24.70;17.98;;;;;;;9.67;67.23;97511.75;10363474;28;20427;-48
2024/01/01 21:23:34;;;;;;;25.25;18.30;;;;;;;9.87;66.94;97516.91;10362962;28;20461;-49
2024/01/01 21:28:33;;;;;;;34.83;22.38;;;;;;;9.69;66.37;97497.06;10362717;28;20052;-51
2024/01/01 21:33:32;;;;;;;26.35;18.92;;;;;;;8.81;65.78;97343.53;10362671;28;20108;-50
2024/01/01 21:38:34;;;;;;;24.67;17.55;;;;;;;9.88;65.78;97530.72;10363212;28;20029;-49
2024/01/01 21:43:33;;;;;;;23.83;17.90;;;;;;;9.94;65.31;97533.31;10362816;28;20056;-48
2024/01/01 21:48:32;;;;;;;25.42;18.88;;;;;;;9.85;64.61;97502.25;10362569;28;20108;-52
2024/01/01 21:53:31;;;;;;;12.00;9.48;;;;;;;9.71;63.99;97531.63;10361207;28;20032;-51
2024/01/01 21:58:30;;;;;;;14.13;10.68;;;;;;;9.33;63.93;97478.13;10363306;28;20460;-50
2024/01/01 22:03:30;;;;;;;12.70;9.43;;;;;;;9.26;64.37;97497.09;10363355;28;20064;-49
2024/01/01 22:08:29;;;;;;;12.90;8.68;;;;;;;9.31;64.48;97490.22;10361494;28;20140;-51
2024/01/01 22:13:28;;;;;;;10.63;8.27;;;;;;;9.45;64.19;97523.00;10363505;28;20464;-49
2024/01/01 22:18:27;;;;;;;10.70;8.02;;;;;;;9.37;64.37;97512.63;10362603;28;20029;-53
2024/01/01 22:23:26;;;;;;;23.95;15.52;;;;;;;9.42;64.47;97515.22;10376258;28;20128;-49
2024/01/01 22:28:25;;;;;;;;;;;;;;;9.52;64.23;97530.78;10361208;28;20068;-51
2024/01/01 22:33:24;;;;;;;21.15;13.93;;;;;;;9.21;64.53;97498.81;10362330;28;19920;-51
2024/01/01 22:38:23;;;;;;;18.02;13.10;;;;;;;8.21;64.90;97321.97;10361819;28;20033;-49
2024/01/01 22:43:24;;;;;;;18.40;13.13;;;;;;;9.36;65.23;97521.28;10363233;28;20102;-51
2024/01/01 22:48:23;;;;;;;19.00;14.15;;;;;;;9.39;65.36;97523.00;10367468;28;20140;-49
2024/01/01 22:53:21;;;;;;;30.42;21.80;;;;;;;9.15;65.67;97473.78;10368647;28;20021;-50
2024/01/01 22:58:20;;;;;;;29.40;19.42;;;;;;;9.26;65.98;97485.88;10368676;28;20117;-49
2024/01/01 23:03:20;;;;;;;31.80;22.60;;;;;;;9.46;66.60;97522.13;10366031;28;20041;-51
2024/01/01 23:08:18;;;;;;;;;;;;;;;9.44;66.72;97522.16;10367832;28;20060;-49